Time;durP1;ratioP1;P1;durP2;ratioP2;P2;SDS_P1;SDS_P2;PMS_P1;PMS_P2;Temp;Humidity;BMP_temperature;BMP_pressure;BME280_temperature;BME280_humidity;BME280_pressure;Samples;Min_cycle;Max_cycle;Signal;HPM_P1;HPM_P2
2022/12/12 00:00:32;;;;;;;5.00;4.60;;;;;;;-0.63;100.00;100732.44;6054120;23;20018;-75
2022/12/12 00:02:59;;;;;;;12.35;4.25;;;;;;;-0.58;100.00;100730.72;5979275;23;20331;-75
2022/12/12 00:05:26;;;;;;;5.93;4.78;;;;;;;-0.06;100.00;100817.19;6013601;23;20039;-77
2022/12/12 00:07:52;;;;;;;4.80;4.40;;;;;;;-0.50;100.00;100752.16;6013028;23;20190;-76
2022/12/12 00:10:19;;;;;;;5.05;4.75;;;;;;;-0.22;100.00;100803.53;6005790;23;20433;-76
2022/12/12 00:12:45;;;;;;;5.70;5.15;;;;;;;-0.35;100.00;100802.75;6050522;23;20034;-75
2022/12/12 00:15:12;;;;;;;5.35;4.53;;;;;;;-0.33;100.00;100790.72;5987532;23;20024;-75
2022/12/12 00:17:39;;;;;;;4.85;4.45;;;;;;;-0.33;100.00;100792.44;6054742;23;20234;-75
2022/12/12 00:20:06;;;;;;;6.70;4.15;;;;;;;-0.33;100.00;100789.84;6013768;23;20247;-75
2022/12/12 00:22:32;;;;;;;14.68;5.00;;;;;;;-1.30;100.00;100634.06;6003532;23;20171;-75
2022/12/12 00:24:59;;;;;;;3.50;3.30;;;;;;;-0.11;100.00;100822.38;6000209;23;20033;-75
2022/12/12 00:27:25;;;;;;;10.13;4.32;;;;;;;-0.50;100.00;100765.03;6008586;23;20015;-75
2022/12/12 00:29:53;;;;;;;5.00;4.70;;;;;;;-0.19;100.00;100820.72;6008558;23;20033;-75
2022/12/12 00:32:20;;;;;;;4.15;3.75;;;;;;;-0.10;100.00;100837.00;6034554;23;20468;-75
2022/12/12 00:34:46;;;;;;;9.32;5.63;;;;;;;-0.12;100.00;100843.00;6008616;23;20527;-75
2022/12/12 00:37:12;;;;;;;6.47;4.25;;;;;;;-0.32;100.00;100807.91;6023139;23;20085;-75
2022/12/12 00:39:39;;;;;;;8.10;4.65;;;;;;;-0.75;100.00;100735.09;5999165;23;20423;-75
2022/12/12 00:42:05;;;;;;;4.20;4.00;;;;;;;-0.59;100.00;100770.22;6025078;23;20084;-76
2022/12/12 00:44:32;;;;;;;4.40;4.20;;;;;;;-0.58;100.00;100759.06;6017730;23;20077;-75
2022/12/12 00:46:58;;;;;;;5.47;4.70;;;;;;;-0.25;100.00;100813.88;6042619;23;20479;-74
2022/12/12 00:49:25;;;;;;;8.60;5.28;;;;;;;-0.07;100.00;100844.72;6021871;23;20039;-75
2022/12/12 00:51:51;;;;;;;5.68;5.18;;;;;;;-0.09;100.00;100843.00;6012231;23;20019;-76
2022/12/12 00:54:17;;;;;;;3.85;3.65;;;;;;;-0.07;100.00;100844.72;6042415;23;20015;-75
2022/12/12 00:56:44;;;;;;;3.88;3.63;;;;;;;-0.13;100.00;100815.53;5995699;23;20167;-75
2022/12/12 00:59:10;;;;;;;4.07;3.75;;;;;;;-0.10;100.00;100836.13;6041148;23;20026;-75
2022/12/12 01:01:37;;;;;;;4.82;4.53;;;;;;;-0.39;100.00;100805.38;6005426;23;20089;-75
2022/12/12 01:04:03;;;;;;;8.88;4.95;;;;;;;-0.75;100.00;100750.56;6048094;23;20030;-75
2022/12/12 01:06:30;;;;;;;4.25;4.00;;;;;;;-0.85;100.00;100729.97;6002211;23;20017;-75
2022/12/12 01:08:57;;;;;;;4.05;3.85;;;;;;;-0.82;100.00;100745.44;6004446;23;20355;-75
2022/12/12 01:11:24;;;;;;;4.70;4.35;;;;;;;-0.71;100.00;100794.34;6027616;23;20021;-75
2022/12/12 01:13:52;;;;;;;5.07;4.68;;;;;;;-0.46;100.00;100825.16;5995477;23;20418;-75
2022/12/12 01:16:19;;;;;;;3.63;3.42;;;;;;;-0.40;100.00;100843.19;6047493;23;20129;-75
2022/12/12 01:18:46;;;;;;;5.65;5.25;;;;;;;-0.32;100.00;100864.63;5990781;23;20162;-76
2022/12/12 01:21:16;;;;;;;4.47;4.22;;;;;;;-0.48;100.00;100837.19;5988579;23;20023;-76
2022/12/12 01:23:43;;;;;;;6.53;5.28;;;;;;;-0.47;100.00;100844.06;6043252;23;20015;-75
2022/12/12 01:26:15;;;;;;;3.20;3.00;;;;;;;-0.33;100.00;100864.63;6006408;23;20015;-75
2022/12/12 01:28:42;;;;;;;4.95;4.55;;;;;;;-0.31;100.00;100873.22;6052104;23;20038;-76
2022/12/12 01:31:09;;;;;;;4.32;3.92;;;;;;;-0.95;100.00;100768.69;6032429;23;20021;-75
2022/12/12 01:33:36;;;;;;;5.40;5.05;;;;;;;-0.34;100.00;100876.69;6005324;23;20060;-75
2022/12/12 01:36:03;;;;;;;5.03;4.65;;;;;;;-0.90;100.00;100788.41;6038141;23;20106;-75
2022/12/12 01:38:29;;;;;;;7.82;4.68;;;;;;;-1.30;100.00;100725.88;6002921;23;20087;-76
2022/12/12 01:40:56;;;;;;;4.97;4.57;;;;;;;-0.36;100.00;100878.41;6044408;23;20031;-76
2022/12/12 01:43:24;;;;;;;5.03;4.60;;;;;;;-1.06;100.00;100766.16;6021299;23;20015;-76
2022/12/12 01:45:56;;;;;;;4.35;4.05;;;;;;;-0.38;100.00;100881.84;6032183;23;20023;-76
2022/12/12 01:48:34;;;;;;;4.45;4.15;;;;;;;-0.86;100.00;100799.56;6000748;23;20335;-76
2022/12/12 01:51:06;;;;;;;3.65;3.42;;;;;;;-1.25;100.00;100737.84;6004378;23;20048;-75
2022/12/12 01:53:33;;;;;;;4.43;4.18;;;;;;;-1.19;100.00;100755.00;6053724;23;20019;-76
2022/12/12 01:56:04;;;;;;;4.97;3.85;;;;;;;-0.42;100.00;100884.44;6005037;23;20332;-76
2022/12/12 01:58:30;;;;;;;4.35;3.65;;;;;;;-1.84;100.00;100651.41;6007923;23;20084;-75
2022/12/12 02:00:57;;;;;;;5.60;4.72;;;;;;;-0.45;100.00;100886.16;5990785;23;20517;-76
2022/12/12 02:03:24;;;;;;;4.63;4.00;;;;;;;-1.07;100.00;100773.00;6051935;23;20010;-76
2022/12/12 02:05:55;;;;;;;5.03;4.30;;;;;;;-1.14;100.00;100768.75;6020401;23;20026;-76
2022/12/12 02:08:22;;;;;;;5.38;4.95;;;;;;;-0.52;100.00;100872.47;6029235;23;20044;-75
2022/12/12 02:10:49;;;;;;;7.68;4.30;;;;;;;-1.04;100.00;100785.03;6005235;23;20035;-76
2022/12/12 02:13:21;;;;;;;3.88;3.67;;;;;;;-0.73;100.00;100837.28;6049312;23;20018;-76
2022/12/12 02:16:05;;;;;;;3.88;3.63;;;;;;;-0.48;100.00;100887.03;6016699;23;20018;-75
2022/12/12 02:18:37;;;;;;;3.00;2.90;;;;;;;-0.49;100.00;100892.19;6026817;23;20022;-76
2022/12/12 02:21:17;;;;;;;;;;;;;;;-0.51;100.00;100888.78;6001295;23;20438;-75
2022/12/12 02:23:58;;;;;;;6.13;4.78;;;;;;;-0.91;100.00;100824.47;6010618;23;19915;-75
2022/12/12 02:26:27;;;;;;;4.90;4.45;;;;;;;-0.50;100.00;100886.19;6042850;23;20408;-75
2022/12/12 02:29:32;;;;;;;4.00;3.63;;;;;;;-0.53;100.00;100891.34;6011476;23;20027;-75
2022/12/12 02:32:10;;;;;;;4.20;3.90;;;;;;;-0.54;100.00;100879.34;6056351;23;20034;-75
2022/12/12 02:34:48;;;;;;;4.25;3.92;;;;;;;-0.56;100.00;100886.22;6011814;23;20150;-74
2022/12/12 02:37:20;;;;;;;6.07;4.75;;;;;;;-0.61;100.00;100883.63;6006616;23;20015;-75
2022/12/12 02:40:02;;;;;;;3.28;3.10;;;;;;;-1.21;100.00;100793.63;6033227;23;20039;-77
2022/12/12 02:42:35;;;;;;;5.15;4.85;;;;;;;-1.54;100.00;100743.09;6006825;23;20019;-76
2022/12/12 02:45:12;;;;;;;3.33;3.10;;;;;;;-0.81;100.00;100852.78;6041635;23;20500;-75
2022/12/12 02:47:46;;;;;;;4.53;4.07;;;;;;;-1.67;100.00;100713.94;6018894;23;20037;-75
2022/12/12 02:50:17;;;;;;;3.30;3.20;;;;;;;-0.96;100.00;100847.69;6029696;23;20493;-76
2022/12/12 02:52:45;;;;;;;10.23;5.53;;;;;;;-1.23;100.00;100792.78;6018859;23;20287;-75
2022/12/12 02:55:13;;;;;;;7.45;3.70;;;;;;;-0.67;100.00;100880.22;6049534;23;20023;-75
2022/12/12 02:57:40;;;;;;;4.45;4.15;;;;;;;-2.29;100.00;100637.72;6006460;23;20074;-76
2022/12/12 03:00:11;;;;;;;3.88;3.67;;;;;;;-1.44;100.00;100778.25;6046148;23;20320;-76
2022/12/12 03:08:53;;;;;;;3.53;3.33;;;;;;;-1.14;100.00;100876.91;6031950;23;20481;-76
2022/12/12 03:11:49;;;;;;;3.00;2.80;;;;;;;-1.27;100.00;100872.63;5998879;23;20019;-75
2022/12/12 03:14:25;;;;;;;13.93;2.83;;;;;;;-1.36;100.00;100885.47;6014309;23;20026;-76
2022/12/12 03:17:10;;;;;;;3.85;3.65;;;;;;;-1.82;100.00;100811.72;6053211;23;20418;-76
2022/12/12 03:19:47;;;;;;;3.20;3.10;;;;;;;-1.40;100.00;100894.94;6036837;23;20045;-74
2022/12/12 03:22:36;;;;;;;3.97;3.63;;;;;;;-1.40;100.00;100879.50;5999694;23;20020;-76
2022/12/12 03:25:40;;;;;;;3.72;3.38;;;;;;;-1.52;100.00;100851.19;6055282;23;20030;-74
2022/12/12 03:28:10;;;;;;;3.15;3.03;;;;;;;-1.33;100.00;100878.63;5984733;23;20102;-75
2022/12/12 03:30:41;;;;;;;8.40;4.80;;;;;;;-1.95;100.00;100772.28;5986824;23;20223;-75
2022/12/12 03:33:19;;;;;;;4.65;4.20;;;;;;;-2.15;100.00;100743.97;6023780;23;20573;-75
2022/12/12 03:35:54;;;;;;;3.53;3.33;;;;;;;-1.62;100.00;100815.16;5996436;23;20034;-75
2022/12/12 03:38:25;;;;;;;4.70;3.08;;;;;;;-1.21;100.00;100880.34;6053548;23;20018;-76
2022/12/12 03:40:54;;;;;;;3.40;3.25;;;;;;;-1.58;100.00;100813.44;6017230;23;20589;-75
2022/12/12 03:43:27;;;;;;;3.15;3.03;;;;;;;-1.54;100.00;100810.00;5977426;23;20011;-75
2022/12/12 03:45:59;;;;;;;3.50;3.20;;;;;;;-1.51;100.00;100812.56;6035278;23;20023;-75
2022/12/12 03:48:33;;;;;;;5.60;5.20;;;;;;;-1.15;100.00;100870.03;6013730;23;20101;-76
2022/12/12 03:51:10;;;;;;;3.33;3.22;;;;;;;-1.55;100.00;100817.72;6035621;23;20739;-76
2022/12/12 03:54:00;;;;;;;4.45;4.13;;;;;;;-1.43;100.00;100848.59;6005927;23;20023;-76
2022/12/12 03:56:37;;;;;;;4.03;3.72;;;;;;;-1.23;100.00;100877.75;6009198;23;20083;-77
2022/12/12 03:59:12;;;;;;;3.97;3.75;;;;;;;-1.38;100.00;100859.75;6016884;23;20458;-76
2022/12/12 04:01:51;;;;;;;3.05;2.85;;;;;;;-1.79;100.00;100783.41;6030677;23;20241;-76
2022/12/12 04:04:30;;;;;;;4.40;4.05;;;;;;;-1.18;100.00;100885.50;6011399;23;20042;-76
2022/12/12 04:07:02;;;;;;;3.30;3.10;;;;;;;-1.18;100.00;100887.19;6023732;23;20007;-76
2022/12/12 04:15:28;;;;;;;3.00;2.85;;;;;;;-1.15;100.00;100894.94;6030822;23;20043;-75
2022/12/12 04:18:21;;;;;;;3.00;2.90;;;;;;;-1.14;100.00;100906.94;6014049;23;20496;-76
2022/12/12 04:23:57;;;;;;;3.35;3.15;;;;;;;-1.21;100.00;100895.78;6042528;23;20085;-78
2022/12/12 04:26:40;;;;;;;4.32;3.08;;;;;;;-1.23;100.00;100897.50;5990596;23;20338;-75
2022/12/12 04:29:39;;;;;;;14.55;3.15;;;;;;;-1.27;100.00;100903.50;6056192;23;20033;-75
2022/12/12 04:32:06;;;;;;;3.15;3.03;;;;;;;-1.29;100.00;100902.66;5994301;23;20030;-74
2022/12/12 04:34:52;;;;;;;4.43;3.88;;;;;;;-2.47;100.00;100716.50;6010329;23;20395;-75
2022/12/12 04:37:27;;;;;;;3.38;3.17;;;;;;;-1.70;100.00;100858.03;6016574;23;20035;-75
2022/12/12 04:39:58;;;;;;;3.30;3.10;;;;;;;-1.49;100.00;100902.66;6026259;23;20383;-76
2022/12/12 04:42:29;;;;;;;3.70;3.50;;;;;;;-1.94;100.00;100816.88;5992353;23;20018;-75
2022/12/12 04:45:02;;;;;;;3.85;3.55;;;;;;;-1.91;100.00;100830.56;6047012;23;20461;-76
2022/12/12 04:47:30;;;;;;;3.97;3.78;;;;;;;-1.91;100.00;100845.16;6007184;23;20027;-75
2022/12/12 04:49:59;;;;;;;3.38;3.17;;;;;;;-1.61;100.00;100895.78;6055205;23;20037;-75
2022/12/12 04:52:30;;;;;;;3.85;2.70;;;;;;;-1.55;100.00;100898.34;6041257;23;20034;-74
2022/12/12 04:55:06;;;;;;;3.75;3.40;;;;;;;-1.43;100.00;100908.66;5993513;23;20031;-76
2022/12/12 04:57:38;;;;;;;3.55;3.33;;;;;;;-1.49;100.00;100894.94;6014327;23;20180;-75
2022/12/12 05:00:07;;;;;;;3.80;3.45;;;;;;;-1.70;100.00;100849.47;5981269;23;20097;-77
2022/12/12 05:02:42;;;;;;;3.78;3.47;;;;;;;-1.96;100.00;100813.44;5993199;23;20378;-77
2022/12/12 05:05:15;;;;;;;6.07;3.80;;;;;;;-1.42;100.00;100909.53;6046291;23;20508;-76
2022/12/12 05:07:43;;;;;;;;;;;;;;;-1.47;100.00;100908.66;6017829;23;20302;-74
2022/12/12 05:10:15;;;;;;;3.50;3.30;;;;;;;-1.68;100.00;100891.50;6017764;23;20579;-76
2022/12/12 05:12:44;;;;;;;2.88;2.78;;;;;;;-1.51;100.00;100918.09;6015453;23;20081;-77
2022/12/12 05:15:10;;;;;;;3.58;3.38;;;;;;;-1.90;100.00;100850.31;5990463;23;20519;-74
2022/12/12 05:17:43;;;;;;;2.75;2.65;;;;;;;-2.04;100.00;100828.84;6030824;23;20454;-75
2022/12/12 05:20:12;;;;;;;;;;;;;;;-1.45;100.00;100922.38;5990292;23;20038;-76
2022/12/12 05:22:39;;;;;;;5.78;3.72;;;;;;;-1.64;100.00;100896.63;6046826;23;19960;-76
2022/12/12 05:25:06;;;;;;;3.47;3.28;;;;;;;-1.63;100.00;100894.91;6028577;23;20629;-75
2022/12/12 05:27:32;;;;;;;3.45;3.17;;;;;;;-1.50;100.00;100918.97;6004316;23;20015;-77
2022/12/12 05:29:59;;;;;;;5.22;3.85;;;;;;;-1.87;100.00;100865.72;6016172;23;20137;-76
2022/12/12 05:32:25;;;;;;;3.33;3.13;;;;;;;-2.03;100.00;100830.56;6025219;23;20029;-76
2022/12/12 05:34:52;;;;;;;3.33;3.13;;;;;;;-1.65;100.00;100901.78;6023529;23;20043;-75
2022/12/12 05:37:18;;;;;;;3.55;3.35;;;;;;;-1.59;100.00;100918.94;6017259;23;20104;-74
2022/12/12 05:39:48;;;;;;;3.47;3.28;;;;;;;-2.08;100.00;100858.00;6035323;23;20014;-75
2022/12/12 05:42:14;;;;;;;4.63;4.22;;;;;;;-1.92;100.00;100882.88;5998674;23;20146;-75
2022/12/12 05:44:40;;;;;;;4.97;4.47;;;;;;;-2.27;100.00;100815.94;6009157;23;20034;-76
2022/12/12 05:47:07;;;;;;;2.90;2.80;;;;;;;-1.69;100.00;100915.50;6042958;23;20501;-76
2022/12/12 05:49:33;;;;;;;3.15;2.65;;;;;;;-2.59;100.00;100767.88;5989206;23;20072;-75
2022/12/12 05:52:00;;;;;;;4.35;3.97;;;;;;;-2.43;100.00;100805.59;6014962;23;20018;-74
2022/12/12 05:54:27;;;;;;;3.60;3.35;;;;;;;-2.38;100.00;100843.34;6011899;23;20026;-75
2022/12/12 05:56:53;;;;;;;4.50;4.20;;;;;;;-2.05;100.00;100879.41;5997248;23;20091;-76
2022/12/12 05:59:19;;;;;;;4.90;4.45;;;;;;;-1.83;100.00;100915.47;6047412;23;20100;-76
2022/12/12 06:01:46;;;;;;;2.75;2.65;;;;;;;-2.35;100.00;100843.34;5999463;23;20030;-76
2022/12/12 06:04:12;;;;;;;4.03;3.67;;;;;;;-2.18;100.00;100877.66;6052843;23;20026;-76
2022/12/12 06:06:39;;;;;;;2.38;2.28;;;;;;;-2.11;100.00;100899.09;5991274;23;20047;-75
2022/12/12 06:09:05;;;;;;;3.17;3.08;;;;;;;-2.50;100.00;100837.28;5983020;23;20123;-76
2022/12/12 06:11:31;;;;;;;3.70;3.40;;;;;;;-2.53;100.00;100839.84;6036231;23;20077;-76
2022/12/12 06:13:58;;;;;;;3.58;3.38;;;;;;;-2.21;100.00;100903.34;6013822;23;20030;-76
2022/12/12 06:16:24;;;;;;;2.80;2.70;;;;;;;-2.28;100.00;100891.34;6052124;23;20026;-74
2022/12/12 06:18:53;;;;;;;2.97;2.88;;;;;;;-2.27;100.00;100901.63;5998504;23;20605;-76
2022/12/12 06:21:20;;;;;;;3.10;3.00;;;;;;;-2.09;100.00;100970.25;6029164;23;20026;-76
2022/12/12 06:23:47;;;;;;;2.95;2.75;;;;;;;-2.38;100.00;100899.88;6010416;23;20045;-77
2022/12/12 06:26:15;;;;;;;3.38;3.28;;;;;;;-2.71;100.00;100845.75;6009996;23;20007;-75
2022/12/12 06:28:42;;;;;;;13.23;12.60;;;;;;;-3.64;100.00;100721.22;5953017;23;20098;-75
2022/12/12 06:31:10;;;;;;;3.33;3.13;;;;;;;-2.38;100.00;100907.59;5984682;23;20022;-75
2022/12/12 06:33:39;;;;;;;3.33;3.13;;;;;;;-2.40;100.00;100925.56;6012224;23;20027;-75
2022/12/12 06:36:11;;;;;;;3.45;3.30;;;;;;;-2.28;100.00;100956.47;6008303;23;20335;-75
2022/12/12 06:38:38;;;;;;;3.42;3.15;;;;;;;-2.29;100.00;100944.44;6017732;23;20089;-76
2022/12/12 06:41:13;;;;;;;3.85;3.55;;;;;;;-2.30;100.00;100952.19;6047876;23;20014;-75
2022/12/12 06:43:40;;;;;;;3.50;3.30;;;;;;;-2.31;100.00;100958.16;6021460;23;20063;-75
2022/12/12 06:46:12;;;;;;;3.72;3.53;;;;;;;-2.90;100.00;100865.38;6051386;23;20468;-76
2022/12/12 06:48:38;;;;;;;4.07;3.80;;;;;;;-3.85;100.00;100708.25;6006765;23;20823;-75
2022/12/12 06:51:08;;;;;;;7.40;3.08;;;;;;;-2.46;100.00;100938.38;6009138;23;20077;-75
2022/12/12 06:53:35;;;;;;;3.00;2.90;;;;;;;-2.34;100.00;100960.72;6026928;23;20034;-75
2022/12/12 06:56:07;;;;;;;3.70;3.40;;;;;;;-2.45;100.00;100946.09;6014846;23;20022;-76
2022/12/12 06:58:33;;;;;;;3.30;3.10;;;;;;;-2.82;100.00;100886.81;6020060;23;20023;-75
2022/12/12 07:01:00;;;;;;;3.45;3.25;;;;;;;-2.36;100.00;100958.16;6010220;23;20445;-76
2022/12/12 07:03:26;;;;;;;3.38;3.17;;;;;;;-2.34;100.00;100965.88;6047719;23;20067;-76
2022/12/12 07:05:53;;;;;;;3.65;3.45;;;;;;;-3.13;100.00;100828.44;6009144;23;20022;-75
2022/12/12 07:08:19;;;;;;;4.78;4.47;;;;;;;-2.47;100.00;100945.22;6055557;23;20030;-74
2022/12/12 07:10:46;;;;;;;3.45;3.33;;;;;;;-3.02;100.00;100848.19;6018484;23;20201;-75
2022/12/12 07:13:13;;;;;;;2.97;2.88;;;;;;;-2.26;100.00;100972.75;5990718;23;20078;-76
2022/12/12 07:15:48;;;;;;;3.63;3.15;;;;;;;-2.23;100.00;100977.03;6056262;23;20548;-76
2022/12/12 07:18:16;;;;;;;2.88;2.78;;;;;;;-2.23;100.00;100977.03;6000519;23;20450;-76
2022/12/12 07:20:45;;;;;;;2.92;2.72;;;;;;;-2.49;100.00;100935.78;6000358;23;20110;-75
2022/12/12 07:23:12;;;;;;;2.60;2.50;;;;;;;-2.22;100.00;100983.91;6045710;23;20532;-75
2022/12/12 07:25:40;;;;;;;2.50;2.40;;;;;;;-3.10;100.00;100823.31;6019654;23;21288;-76
2022/12/12 07:28:09;;;;;;;2.85;2.75;;;;;;;-2.18;100.00;100987.38;6046977;23;20014;-75
2022/12/12 07:30:40;;;;;;;3.20;3.10;;;;;;;-2.43;100.00;100940.97;6015247;23;20014;-75
2022/12/12 07:33:08;;;;;;;2.50;2.40;;;;;;;-2.69;100.00;100903.13;6012213;23;20484;-78
2022/12/12 07:35:35;;;;;;;6.93;5.10;;;;;;;-2.69;100.00;100907.44;6001568;23;20039;-75
2022/12/12 07:38:02;;;;;;;3.97;3.78;;;;;;;-2.27;100.00;100995.88;5984998;23;20512;-76
2022/12/12 07:40:29;;;;;;;3.97;2.60;;;;;;;-2.32;100.00;100979.59;6035069;23;20458;-76
2022/12/12 07:42:57;;;;;;;3.05;2.92;;;;;;;-2.30;100.00;100988.16;5994562;23;20329;-75
2022/12/12 07:45:24;;;;;;;8.27;3.78;;;;;;;-2.33;100.00;100986.41;6026792;23;20030;-75
2022/12/12 07:47:51;;;;;;;2.83;2.72;;;;;;;-2.29;100.00;100989.88;5998186;23;20358;-77
2022/12/12 07:50:18;;;;;;;3.38;3.17;;;;;;;-2.29;100.00;100992.44;6006524;23;20670;-75
2022/12/12 07:52:44;;;;;;;2.92;2.83;;;;;;;-2.61;100.00;100955.44;6020829;23;20268;-75
2022/12/12 07:55:11;;;;;;;3.08;2.97;;;;;;;-2.70;100.00;100942.53;6001140;23;20558;-76
2022/12/12 07:57:38;;;;;;;2.80;2.70;;;;;;;-2.29;100.00;101000.16;6022113;23;20051;-76
2022/12/12 08:00:06;;;;;;;3.65;3.45;;;;;;;-2.28;100.00;100989.88;6029873;23;20629;-75
2022/12/12 08:02:32;;;;;;;2.75;2.65;;;;;;;-2.61;100.00;100949.44;6023720;23;20027;-75
2022/12/12 08:04:59;;;;;;;3.45;3.30;;;;;;;-3.73;100.00;100761.31;5994882;23;20085;-75
2022/12/12 08:07:25;;;;;;;5.55;5.07;;;;;;;-2.99;100.00;100890.97;6054530;23;20033;-74
2022/12/12 08:09:52;;;;;;;7.20;4.88;;;;;;;-2.93;100.00;100900.44;6013308;23;20876;-76
2022/12/12 08:12:18;;;;;;;2.60;2.50;;;;;;;-2.73;100.00;100944.22;6006300;23;20114;-76
2022/12/12 08:14:45;;;;;;;4.68;3.53;;;;;;;-3.15;100.00;100886.59;6033651;23;20029;-74
2022/12/12 08:17:11;;;;;;;4.13;3.88;;;;;;;-3.09;100.00;100896.91;6011345;23;20502;-76
2022/12/12 08:19:38;;;;;;;3.35;3.25;;;;;;;-2.47;100.00;101006.91;6051388;23;20604;-75
2022/12/12 08:22:04;;;;;;;6.95;3.60;;;;;;;-2.90;100.00;100939.84;6015678;23;20081;-75
2022/12/12 08:24:31;;;;;;;2.63;2.53;;;;;;;-2.61;100.00;100995.66;6011476;23;20047;-74
2022/12/12 08:26:57;;;;;;;6.05;4.50;;;;;;;-3.71;100.00;100834.88;6042684;23;20023;-76
2022/12/12 08:29:23;;;;;;;5.22;3.35;;;;;;;-2.88;100.00;100986.09;6040037;23;20077;-76
2022/12/12 08:31:50;;;;;;;2.50;2.40;;;;;;;-3.27;100.00;100918.16;6012625;23;20203;-74
2022/12/12 08:34:17;;;;;;;2.92;2.83;;;;;;;-2.81;100.00;101000.66;6024410;23;20094;-75
2022/12/12 08:36:46;;;;;;;3.58;3.40;;;;;;;-3.01;100.00;100985.09;6016852;23;20030;-74
2022/12/12 08:39:15;;;;;;;3.45;3.25;;;;;;;-3.83;100.00;100827.94;6038769;23;20265;-75
2022/12/12 08:41:43;;;;;;;2.70;2.58;;;;;;;-2.63;100.00;101033.34;5997598;23;20027;-75
2022/12/12 08:44:11;;;;;;;3.65;3.40;;;;;;;-2.60;100.00;101033.38;5979200;23;20472;-76
2022/12/12 08:46:38;;;;;;;3.13;3.00;;;;;;;-2.88;100.00;100994.63;6016961;23;20033;-76
2022/12/12 08:49:05;;;;;;;3.05;2.95;;;;;;;-3.17;100.00;100944.75;5994311;23;20023;-76
2022/12/12 08:51:31;;;;;;;3.65;3.45;;;;;;;-3.13;100.00;100949.91;6049312;23;20022;-77
2022/12/12 08:53:58;;;;;;;3.33;3.08;;;;;;;-2.72;100.00;101002.47;6013134;23;20096;-76
2022/12/12 08:56:25;;;;;;;4.20;3.58;;;;;;;-2.37;100.00;101042.94;6018768;23;20022;-76
2022/12/12 08:58:52;;;;;;;7.35;3.13;;;;;;;-2.30;100.00;101043.00;6014589;23;20037;-76
2022/12/12 09:01:21;;;;;;;2.55;2.45;;;;;;;-2.28;100.00;101043.00;6017870;23;20029;-76
2022/12/12 09:03:50;;;;;;;2.53;2.42;;;;;;;-2.40;100.00;101025.81;6048011;23;20038;-76
2022/12/12 09:06:17;;;;;;;2.72;2.63;;;;;;;-2.42;100.00;101030.06;6011688;23;20033;-75
2022/12/12 09:08:44;;;;;;;2.60;2.50;;;;;;;-2.43;100.00;101018.91;6017279;23;20031;-76
2022/12/12 09:11:11;;;;;;;2.88;2.78;;;;;;;-2.98;100.00;100913.25;6010338;23;20196;-76
2022/12/12 09:13:40;;;;;;;3.00;2.85;;;;;;;-2.92;100.00;100927.84;6000453;23;20078;-75
2022/12/12 09:16:08;;;;;;;3.03;2.83;;;;;;;-2.45;100.00;100984.63;6037493;23;20022;-74
2022/12/12 09:18:35;;;;;;;3.65;3.45;;;;;;;-1.98;100.00;101057.75;6019788;23;20034;-76
2022/12/12 09:21:03;;;;;;;14.52;5.72;;;;;;;-1.81;100.00;101070.69;6052366;23;20017;-75
2022/12/12 09:23:32;;;;;;;2.60;2.50;;;;;;;-1.82;100.00;101080.13;5979267;23;20050;-76
2022/12/12 09:26:04;;;;;;;2.90;2.80;;;;;;;-1.68;100.00;101077.59;5993345;23;20004;-76
2022/12/12 09:28:30;;;;;;;2.78;2.67;;;;;;;-1.61;100.00;101088.78;6037432;23;20026;-76
2022/12/12 09:30:56;;;;;;;4.10;3.80;;;;;;;-2.43;100.00;100939.25;6000538;23;20258;-74
2022/12/12 09:33:23;;;;;;;4.07;3.72;;;;;;;-1.62;100.00;101066.47;6048822;23;20026;-75
2022/12/12 09:35:58;;;;;;;3.63;3.33;;;;;;;-1.33;100.00;101117.19;6007352;23;20035;-75
2022/12/12 09:38:24;;;;;;;5.05;4.43;;;;;;;-1.57;100.00;101051.91;6005719;23;20030;-75
2022/12/12 09:40:55;;;;;;;4.05;3.20;;;;;;;-1.48;100.00;101051.09;5989319;23;20311;-74
2022/12/12 09:43:26;;;;;;;3.08;2.90;;;;;;;-1.41;100.00;101050.25;6042527;23;20018;-74
2022/12/12 09:45:55;;;;;;;5.03;4.25;;;;;;;-1.72;100.00;100995.25;6008839;23;20555;-75
2022/12/12 09:48:43;;;;;;;5.57;5.15;;;;;;;-1.03;100.00;101101.81;6005717;23;20019;-75
2022/12/12 09:51:11;;;;;;;2.85;2.75;;;;;;;-1.37;100.00;101018.50;6017987;23;20035;-74
2022/12/12 09:53:40;;;;;;;4.15;3.80;;;;;;;-1.73;100.00;100963.50;6005496;23;20035;-75
2022/12/12 09:56:22;;;;;;;2.88;2.78;;;;;;;-0.82;100.00;101079.53;6034681;23;20336;-76
2022/12/12 09:59:02;;;;;;;3.78;3.55;;;;;;;-0.60;100.00;101103.63;5984316;23;20477;-76
2022/12/12 10:01:38;;;;;;;4.07;3.83;;;;;;;-0.55;100.00;101088.97;6044129;23;20027;-74
2022/12/12 10:04:18;;;;;;;4.00;3.75;;;;;;;-0.41;100.00;101102.72;6007840;23;20014;-75
2022/12/12 10:06:56;;;;;;;3.58;3.38;;;;;;;-0.45;100.00;101098.44;6000238;23;20027;-75
2022/12/12 10:09:32;;;;;;;2.60;2.50;;;;;;;-0.69;100.00;101034.84;6010818;23;20097;-75
2022/12/12 10:12:02;;;;;;;4.30;4.00;;;;;;;-0.97;100.00;100951.56;6013178;23;20026;-76
2022/12/12 10:14:41;;;;;;;3.67;3.10;;;;;;;-0.02;100.00;101079.44;6007919;23;20058;-77
2022/12/12 10:17:30;;;;;;;3.60;3.38;;;;;;;-0.22;99.04;101035.63;6054563;23;20112;-75
2022/12/12 10:20:03;;;;;;;3.63;3.25;;;;;;;0.14;97.80;101075.09;6004106;23;20106;-75
2022/12/12 10:22:51;;;;;;;3.03;2.92;;;;;;;0.10;96.08;101068.25;5975598;23;20027;-75
2022/12/12 10:25:51;;;;;;;2.90;2.80;;;;;;;0.11;94.98;101059.66;6027747;23;20031;-75
2022/12/12 10:28:19;;;;;;;4.68;3.08;;;;;;;-0.36;94.04;100954.88;5996094;23;20031;-76
2022/12/12 10:31:19;;;;;;;4.07;3.78;;;;;;;0.26;93.39;101054.44;6032608;23;20038;-75
2022/12/12 10:34:07;;;;;;;2.85;2.75;;;;;;;0.16;92.59;101039.81;6016072;23;20110;-76
2022/12/12 10:36:43;;;;;;;4.07;3.83;;;;;;;0.27;92.10;101027.75;6029425;23;20026;-76
2022/12/12 10:39:29;;;;;;;3.55;3.35;;;;;;;0.33;91.45;101019.97;5991635;23;20318;-76
2022/12/12 10:42:25;;;;;;;3.45;3.22;;;;;;;-0.08;90.85;100941.03;6004944;23;20093;-76
2022/12/12 10:45:04;;;;;;;3.58;3.00;;;;;;;0.48;91.16;101021.63;6009926;23;20343;-75
2022/12/12 10:47:32;;;;;;;3.17;3.05;;;;;;;0.41;89.36;101006.19;5987632;23;20042;-76
2022/12/12 10:50:30;;;;;;;3.42;3.22;;;;;;;-0.33;88.27;100859.47;6027523;23;20041;-75
2022/12/12 10:52:56;;;;;;;3.83;3.63;;;;;;;0.54;87.86;100967.38;5976902;23;20134;-75
2022/12/12 10:56:03;;;;;;;3.67;3.42;;;;;;;0.70;86.57;100968.13;6011615;23;20518;-76
2022/12/12 10:58:41;;;;;;;6.53;4.53;;;;;;;0.93;85.71;100975.69;6022173;23;20039;-76
2022/12/12 11:01:17;;;;;;;3.40;3.25;;;;;;;0.57;85.23;100896.75;6009472;23;20073;-76
2022/12/12 11:04:00;;;;;;;3.67;3.47;;;;;;;0.99;84.91;100921.38;6024454;23;20266;-76
2022/12/12 11:06:39;;;;;;;3.42;3.22;;;;;;;1.25;83.43;100964.22;6006441;23;20011;-75
2022/12/12 11:09:26;;;;;;;4.43;3.92;;;;;;;1.23;82.66;100921.16;6004877;23;20011;-75
2022/12/12 11:12:08;;;;;;;3.38;3.17;;;;;;;1.22;82.45;100916.84;6019452;23;20539;-74
2022/12/12 11:14:47;;;;;;;3.33;3.13;;;;;;;1.31;82.67;100920.19;6011116;23;20058;-77
2022/12/12 11:17:21;;;;;;;2.97;2.83;;;;;;;1.22;81.96;100891.84;6005892;23;20037;-76
2022/12/12 11:19:47;;;;;;;3.70;3.50;;;;;;;1.63;82.01;100920.72;6038078;23;20026;-77
2022/12/12 11:22:14;;;;;;;5.40;4.90;;;;;;;1.06;80.91;100820.50;6021655;23;20116;-76
2022/12/12 11:24:45;;;;;;;3.97;3.78;;;;;;;1.86;81.00;100918.69;6044295;23;20504;-75
2022/12/12 11:27:31;;;;;;;3.97;3.67;;;;;;;1.71;80.11;100864.56;6013154;23;20434;-75
2022/12/12 11:30:00;;;;;;;4.53;4.10;;;;;;;1.50;79.50;100821.72;6052405;23;20022;-75
2022/12/12 11:32:38;;;;;;;3.92;3.65;;;;;;;1.93;79.25;100880.66;6040703;23;20081;-77
2022/12/12 11:35:20;;;;;;;4.65;4.38;;;;;;;2.16;79.36;100891.53;5980826;23;20368;-76
2022/12/12 11:37:50;;;;;;;3.60;3.40;;;;;;;2.35;78.93;100893.88;6037626;23;20296;-75
2022/12/12 11:40:24;;;;;;;8.13;3.45;;;;;;;1.72;76.85;100775.72;6003464;23;20035;-76
2022/12/12 11:42:51;;;;;;;6.82;3.97;;;;;;;1.99;77.10;100806.38;6054223;23;20030;-75
2022/12/12 11:45:22;;;;;;;3.17;2.97;;;;;;;0.73;76.01;100578.06;6003991;23;20038;-77
2022/12/12 11:47:49;;;;;;;3.28;3.08;;;;;;;2.14;76.50;100794.91;6007949;23;20031;-75
2022/12/12 11:50:24;;;;;;;20.10;6.05;;;;;;;1.75;75.59;100757.56;6044119;23;20060;-75
2022/12/12 11:52:53;;;;;;;5.22;4.72;;;;;;;2.32;76.86;100821.41;6013192;23;20402;-75